Time;durP1;ratioP1;P1;durP2;ratioP2;P2;SDS_P1;SDS_P2;PMS_P1;PMS_P2;Temp;Humidity;BMP_temperature;BMP_pressure;BME280_temperature;BME280_humidity;BME280_pressure;Samples;Min_cycle;Max_cycle;Signal;HPM_P1;HPM_P2
2022/08/03 00:01:20;;;;;;;3.47;3.17;;;;;;;24.90;48.22;97516.88;5029479;28;20260;-70
2022/08/03 00:03:46;;;;;;;5.37;4.23;;;;;;;24.93;47.79;97510.22;5033141;28;20658;-71
2022/08/03 00:06:11;;;;;;;4.30;3.30;;;;;;;24.85;47.90;97511.41;5032485;28;20180;-71
2022/08/03 00:08:36;;;;;;;4.30;3.60;;;;;;;24.78;48.21;97516.09;5032770;28;20304;-71
2022/08/03 00:11:02;;;;;;;4.00;3.70;;;;;;;24.73;48.05;97514.13;5032872;28;20743;-71
2022/08/03 00:13:28;;;;;;;3.70;3.40;;;;;;;24.67;48.35;97510.50;5035711;28;20196;-71
2022/08/03 00:15:53;;;;;;;4.70;4.00;;;;;;;24.68;48.16;97514.81;5029398;28;20617;-71
2022/08/03 00:18:19;;;;;;;3.37;3.07;;;;;;;24.66;47.87;97508.03;5031494;28;20267;-70
2022/08/03 00:20:44;;;;;;;4.07;3.33;;;;;;;24.59;47.88;97516.19;5031967;28;20187;-72
2022/08/03 00:23:10;;;;;;;7.83;3.00;;;;;;;24.57;48.30;97515.66;5030159;28;20195;-71
2022/08/03 00:25:36;;;;;;;4.80;3.67;;;;;;;24.54;48.29;97514.22;5026095;28;20207;-71
2022/08/03 00:28:05;;;;;;;3.50;3.27;;;;;;;24.49;48.36;97513.31;5039600;28;20183;-71
2022/08/03 00:30:30;;;;;;;3.80;3.40;;;;;;;24.50;48.24;97509.59;5030146;28;20263;-71
2022/08/03 00:32:56;;;;;;;10.10;3.33;;;;;;;24.55;48.31;97507.03;5032476;28;21057;-70
2022/08/03 00:35:22;;;;;;;3.20;3.00;;;;;;;24.61;47.72;97506.06;5031480;28;20275;-70
2022/08/03 00:37:47;;;;;;;2.97;2.77;;;;;;;24.54;47.42;97506.19;5029507;28;20214;-70
2022/08/03 00:40:14;;;;;;;4.70;3.27;;;;;;;24.45;48.28;97507.63;5027098;28;20271;-71
2022/08/03 00:42:49;;;;;;;3.47;3.03;;;;;;;24.39;47.71;97504.00;5023988;28;20208;-71
2022/08/03 00:45:22;;;;;;;4.00;3.60;;;;;;;24.41;48.10;97511.81;5024818;28;21038;-71
2022/08/03 00:47:48;;;;;;;3.40;3.10;;;;;;;24.46;47.77;97511.09;5032158;28;20476;-70
2022/08/03 00:50:14;;;;;;;4.00;3.60;;;;;;;24.47;47.60;97510.06;5028797;28;20423;-71
2022/08/03 00:52:40;;;;;;;3.87;2.93;;;;;;;24.49;48.09;97502.59;5032132;28;20227;-72
2022/08/03 00:55:05;;;;;;;4.20;3.20;;;;;;;24.49;47.91;97502.59;5030423;28;20510;-71
2022/08/03 00:57:31;;;;;;;3.97;3.30;;;;;;;24.47;47.88;97500.16;5031629;28;20202;-70
2022/08/03 00:59:58;;;;;;;3.80;3.20;;;;;;;24.44;47.96;97499.81;5032212;28;20561;-70
2022/08/03 01:02:25;;;;;;;4.97;3.53;;;;;;;24.39;48.42;97498.66;5031572;28;20525;-70
2022/08/03 01:04:50;;;;;;;3.33;3.13;;;;;;;24.35;48.68;97496.69;5031968;28;20941;-71
2022/08/03 01:07:36;;;;;;;5.00;3.40;;;;;;;24.28;48.80;97490.63;5031534;28;20617;-71
2022/08/03 01:10:20;;;;;;;4.23;3.57;;;;;;;24.22;49.01;97493.19;5028542;28;20836;-70
2022/08/03 01:12:58;;;;;;;5.10;3.43;;;;;;;24.25;49.21;97491.09;5031342;28;20484;-71
2022/08/03 01:15:28;;;;;;;3.93;3.63;;;;;;;24.28;49.27;97490.63;5024055;28;20419;-72
2022/08/03 01:18:06;;;;;;;4.20;3.50;;;;;;;24.28;48.94;97491.44;5029430;28;20779;-71
2022/08/03 01:20:34;;;;;;;5.57;3.57;;;;;;;24.29;49.18;97487.72;5032014;28;20421;-71
2022/08/03 01:23:31;;;;;;;3.50;3.30;;;;;;;24.19;49.32;97479.47;5030328;28;20477;-71
2022/08/03 01:26:27;;;;;;;5.13;3.53;;;;;;;24.18;49.10;97488.56;5026131;28;20423;-71
2022/08/03 01:29:02;;;;;;;3.83;3.50;;;;;;;24.19;49.30;97476.81;5032137;28;20422;-71
2022/08/03 01:31:32;;;;;;;5.20;3.30;;;;;;;24.23;49.06;97483.28;5031260;28;20437;-72
2022/08/03 01:34:02;;;;;;;4.87;3.63;;;;;;;24.15;49.17;97478.31;5030262;28;20422;-71
2022/08/03 01:36:38;;;;;;;4.03;3.63;;;;;;;24.09;49.90;97472.03;5029573;28;20430;-72
2022/08/03 01:39:08;;;;;;;4.10;3.80;;;;;;;24.11;49.98;97471.78;5030365;28;20426;-71
2022/08/03 01:41:58;;;;;;;3.50;3.20;;;;;;;24.07;50.10;97471.44;5024898;28;20457;-71
2022/08/03 01:44:25;;;;;;;6.97;3.47;;;;;;;24.03;49.77;97471.09;5025848;28;20431;-71
2022/08/03 01:46:51;;;;;;;6.63;3.73;;;;;;;24.05;49.70;97466.31;5029723;28;20433;-71
2022/08/03 01:49:17;;;;;;;6.80;3.50;;;;;;;24.03;49.80;97465.75;5025622;28;20458;-72
2022/08/03 01:51:43;;;;;;;4.00;3.60;;;;;;;24.02;49.55;97472.13;5031303;28;20486;-70
2022/08/03 01:54:09;;;;;;;4.00;3.70;;;;;;;24.01;49.61;97473.19;5029553;28;20176;-70
2022/08/03 01:56:36;;;;;;;6.77;4.30;;;;;;;24.02;49.71;97461.44;5029936;28;20917;-72
2022/08/03 01:59:02;;;;;;;4.00;3.60;;;;;;;23.98;49.52;97460.25;5030801;28;20952;-71
2022/08/03 02:01:28;;;;;;;4.13;3.83;;;;;;;23.98;49.86;97465.59;5030682;28;20442;-70
2022/08/03 02:03:55;;;;;;;4.60;3.63;;;;;;;23.92;49.92;97463.84;5029723;28;20453;-70
2022/08/03 02:06:21;;;;;;;4.37;3.17;;;;;;;23.85;49.72;97460.44;5029254;28;20195;-70
2022/08/03 02:08:47;;;;;;;4.07;3.63;;;;;;;23.79;50.27;97464.88;5029610;28;20430;-70
2022/08/03 02:11:13;;;;;;;10.17;3.80;;;;;;;23.77;50.68;97457.09;5024740;28;20207;-71
2022/08/03 02:13:39;;;;;;;3.87;3.50;;;;;;;23.80;50.60;97465.69;5034343;28;20513;-71
2022/08/03 02:16:06;;;;;;;4.47;3.40;;;;;;;23.79;50.45;97456.84;5030416;28;20184;-70
2022/08/03 02:18:32;;;;;;;4.03;3.60;;;;;;;23.79;50.27;97459.53;5028838;28;20180;-70
2022/08/03 02:21:02;;;;;;;6.73;3.67;;;;;;;23.78;50.18;97461.41;5030981;28;20484;-70
2022/08/03 02:23:28;;;;;;;3.97;3.57;;;;;;;23.69;50.20;97459.28;5029097;28;21018;-71
2022/08/03 02:25:57;;;;;;;3.37;3.13;;;;;;;23.67;50.47;97451.50;5030703;28;20427;-70
2022/08/03 02:28:29;;;;;;;4.10;3.80;;;;;;;23.63;50.65;97458.34;5027391;28;20573;-70
2022/08/03 02:30:55;;;;;;;3.27;2.97;;;;;;;23.68;50.56;97463.00;5029384;28;20549;-71
2022/08/03 02:33:29;;;;;;;8.33;3.00;;;;;;;23.66;50.23;97462.41;5028112;28;21075;-70
2022/08/03 02:35:56;;;;;;;3.70;3.30;;;;;;;23.70;50.25;97461.72;5030804;28;20643;-70
2022/08/03 02:38:26;;;;;;;3.57;3.27;;;;;;;23.70;50.21;97467.06;5029570;28;21006;-70
2022/08/03 02:40:54;;;;;;;3.37;3.07;;;;;;;23.69;50.19;97462.75;5029536;28;20446;-70
2022/08/03 02:43:20;;;;;;;3.80;3.50;;;;;;;23.73;50.28;97466.63;5033094;28;20504;-70
2022/08/03 02:45:48;;;;;;;3.63;3.33;;;;;;;23.70;50.16;97461.72;5029651;28;20418;-70
2022/08/03 02:48:25;;;;;;;3.57;3.23;;;;;;;23.65;50.35;97455.44;5012300;28;20418;-70
2022/08/03 02:50:52;;;;;;;3.37;3.07;;;;;;;23.64;50.36;97459.97;5024411;28;20433;-71
2022/08/03 02:53:18;;;;;;;5.23;2.97;;;;;;;23.63;50.35;97459.16;5030140;28;20458;-70
2022/08/03 02:55:45;;;;;;;3.33;3.13;;;;;;;23.62;50.65;97459.38;5030139;28;20458;-71
2022/08/03 02:58:12;;;;;;;4.07;3.20;;;;;;;23.62;50.47;97459.38;5028884;28;20191;-72
2022/08/03 03:00:38;;;;;;;4.77;3.63;;;;;;;23.61;50.55;97455.91;5030216;28;20537;-71
2022/08/03 03:03:05;;;;;;;6.67;3.63;;;;;;;23.62;50.23;97451.34;5028797;28;20450;-72
2022/08/03 03:05:30;;;;;;;4.97;3.70;;;;;;;23.61;50.38;97450.56;5025025;28;20179;-72
2022/08/03 03:07:56;;;;;;;5.73;4.17;;;;;;;23.52;50.36;97451.91;5028841;28;20457;-71
2022/08/03 03:10:22;;;;;;;3.30;3.10;;;;;;;23.45;50.99;97461.91;5028649;28;20184;-71
2022/08/03 03:12:51;;;;;;;3.93;3.63;;;;;;;23.39;51.00;97455.63;5033678;28;20210;-72
2022/08/03 03:15:16;;;;;;;4.20;3.80;;;;;;;23.38;50.94;97454.00;5028019;28;20432;-71
2022/08/03 03:17:42;;;;;;;5.53;3.60;;;;;;;23.37;50.84;97460.38;5027027;28;20497;-71
2022/08/03 03:20:08;;;;;;;6.60;3.73;;;;;;;23.36;51.04;97449.94;5027219;28;20226;-71
2022/08/03 03:22:34;;;;;;;7.33;3.60;;;;;;;23.38;50.94;97455.84;5019441;28;20487;-71
2022/08/03 03:25:00;;;;;;;4.07;3.77;;;;;;;23.37;50.59;97455.03;5013736;28;20839;-71
2022/08/03 03:27:26;;;;;;;4.87;3.70;;;;;;;23.34;50.78;97460.03;5037073;28;20573;-71
2022/08/03 03:29:51;;;;;;;6.23;3.70;;;;;;;23.28;51.17;97456.41;5039048;28;20505;-71
2022/08/03 03:32:17;;;;;;;4.20;3.57;;;;;;;23.25;51.37;97457.66;5046706;28;20203;-71
2022/08/03 03:34:43;;;;;;;3.90;3.60;;;;;;;23.28;51.40;97451.88;5033881;28;20582;-72
2022/08/03 03:37:09;;;;;;;3.77;3.30;;;;;;;23.28;51.35;97451.88;5037767;28;20211;-71
2022/08/03 03:39:35;;;;;;;4.13;3.60;;;;;;;23.28;51.34;97451.88;5045902;28;20472;-71
2022/08/03 03:42:01;;;;;;;6.27;3.20;;;;;;;23.27;51.29;97454.78;5040993;28;20582;-71
2022/08/03 03:44:27;;;;;;;6.33;3.73;;;;;;;23.29;51.28;97450.03;5044786;28;20206;-71
2022/08/03 03:46:54;;;;;;;3.27;3.07;;;;;;;23.30;51.38;97451.66;5037833;28;20423;-71
2022/08/03 03:49:20;;;;;;;4.60;3.57;;;;;;;23.30;51.14;97459.69;5034392;28;20430;-71
2022/08/03 03:51:45;;;;;;;5.90;3.80;;;;;;;23.26;51.36;97456.63;5015350;28;21028;-71
2022/08/03 03:54:10;;;;;;;4.67;3.70;;;;;;;23.27;51.44;97454.78;5045437;28;20175;-71
2022/08/03 03:56:36;;;;;;;4.57;3.87;;;;;;;23.28;51.69;97451.06;5045488;28;20183;-72
2022/08/03 03:59:01;;;;;;;4.23;3.83;;;;;;;23.23;51.83;97454.44;5034867;28;20198;-72
2022/08/03 04:01:27;;;;;;;4.10;3.70;;;;;;;23.20;51.85;97444.19;5035817;28;20194;-72
2022/08/03 04:03:53;;;;;;;7.17;4.33;;;;;;;23.14;52.08;97445.88;5051112;28;20623;-71
2022/08/03 04:11:54;;;;;;;5.93;3.97;;;;;;;23.07;52.64;97453.16;5036811;28;20444;-71
2022/08/03 04:14:33;;;;;;;5.63;3.90;;;;;;;23.07;52.93;97453.16;5043009;28;20426;-71
2022/08/03 04:17:01;;;;;;;4.60;4.20;;;;;;;23.07;52.88;97453.16;5037485;28;20433;-72
2022/08/03 04:19:35;;;;;;;5.20;4.00;;;;;;;23.10;52.81;97455.38;5028060;28;20426;-71
2022/08/03 04:22:04;;;;;;;11.63;4.53;;;;;;;23.08;52.76;97460.13;5032596;28;20533;-71
2022/08/03 04:24:33;;;;;;;6.87;4.40;;;;;;;23.07;53.03;97458.50;5038496;28;20455;-71
2022/08/03 04:27:01;;;;;;;4.33;3.90;;;;;;;23.10;53.03;97460.72;5032797;28;20469;-71
2022/08/03 04:29:28;;;;;;;4.60;4.20;;;;;;;23.13;52.90;97460.28;5032229;28;20435;-71
2022/08/03 04:31:54;;;;;;;4.60;4.07;;;;;;;23.03;53.11;97460.03;5045333;28;20469;-70
2022/08/03 04:34:20;;;;;;;5.13;4.30;;;;;;;23.04;53.34;97464.31;5048286;28;20504;-70
2022/08/03 04:36:49;;;;;;;6.73;4.27;;;;;;;23.05;53.46;97468.63;5042734;28;20508;-71
2022/08/03 04:39:24;;;;;;;4.80;4.37;;;;;;;23.06;53.19;97472.91;5031979;28;20180;-70
2022/08/03 04:41:52;;;;;;;6.33;3.97;;;;;;;23.07;53.22;97468.41;5042713;28;20442;-70
2022/08/03 04:44:18;;;;;;;4.93;4.20;;;;;;;23.11;52.92;97473.06;5048618;28;20482;-71
2022/08/03 04:46:44;;;;;;;5.67;4.40;;;;;;;23.17;53.26;97469.50;5033971;28;20434;-70
2022/08/03 04:49:10;;;;;;;5.33;4.47;;;;;;;23.21;53.19;97479.75;5027277;28;20915;-72
2022/08/03 04:51:38;;;;;;;6.83;4.50;;;;;;;23.20;53.24;97481.59;5042044;28;20241;-71
2022/08/03 04:54:04;;;;;;;5.33;4.83;;;;;;;23.28;53.34;97485.81;5043871;28;20976;-71
2022/08/03 04:56:29;;;;;;;4.73;4.27;;;;;;;23.30;53.29;97478.41;5029771;28;20429;-71
2022/08/03 04:58:55;;;;;;;8.40;4.37;;;;;;;23.34;53.33;97484.09;5028227;28;20202;-71
2022/08/03 05:01:21;;;;;;;6.10;4.87;;;;;;;23.39;53.49;97484.22;5035910;28;20187;-71
2022/08/03 05:03:46;;;;;;;5.47;4.83;;;;;;;23.42;53.26;97481.91;5050715;28;20301;-71
2022/08/03 05:06:12;;;;;;;5.37;4.87;;;;;;;23.41;53.04;97484.81;5038746;28;20556;-71
2022/08/03 05:08:38;;;;;;;7.97;5.00;;;;;;;23.39;53.11;97486.88;5031233;28;20642;-70
2022/08/03 05:11:03;;;;;;;5.73;5.10;;;;;;;23.43;53.17;97480.03;5035476;28;20269;-71
2022/08/03 05:13:29;;;;;;;5.40;4.90;;;;;;;23.47;53.32;97484.69;5035477;28;20869;-72
2022/08/03 05:15:54;;;;;;;9.20;4.90;;;;;;;23.57;53.32;97478.81;5041341;28;20531;-69
2022/08/03 05:18:20;;;;;;;7.53;5.00;;;;;;;23.62;53.00;97478.94;5033111;28;20194;-70
2022/08/03 05:20:45;;;;;;;7.40;5.13;;;;;;;23.62;52.94;97488.81;5049302;28;20202;-71
2022/08/03 05:23:11;;;;;;;5.43;4.93;;;;;;;23.60;53.23;97485.53;5043076;28;20199;-70
2022/08/03 05:25:36;;;;;;;11.77;5.63;;;;;;;23.68;53.19;97492.44;5027997;28;20187;-70
2022/08/03 05:28:02;;;;;;;6.43;5.13;;;;;;;23.71;52.93;97487.41;5034232;28;20187;-70
2022/08/03 05:30:27;;;;;;;10.73;5.20;;;;;;;23.76;52.85;97484.06;5030726;28;20647;-69
2022/08/03 05:32:53;;;;;;;9.50;5.60;;;;;;;23.85;53.00;97492.56;5031042;28;20624;-70
2022/08/03 05:35:18;;;;;;;8.97;5.13;;;;;;;23.91;53.05;97488.97;5024865;28;20195;-69
2022/08/03 05:37:43;;;;;;;5.60;5.00;;;;;;;23.99;53.23;97491.31;5015125;28;20196;-69
2022/08/03 05:40:10;;;;;;;5.63;4.23;;;;;;;24.07;52.89;97485.63;5020772;28;20188;-71
2022/08/03 05:42:38;;;;;;;5.83;4.90;;;;;;;24.16;52.87;97482.63;5014923;28;20211;-70
2022/08/03 05:45:13;;;;;;;5.33;4.83;;;;;;;24.27;52.84;97489.81;5024402;28;20463;-70
2022/08/03 05:47:40;;;;;;;6.00;4.70;;;;;;;24.41;52.80;97493.06;5016104;28;20418;-72
2022/08/03 05:50:06;;;;;;;4.90;4.40;;;;;;;24.54;52.43;97490.13;5035956;28;20440;-69
2022/08/03 05:52:31;;;;;;;7.70;5.30;;;;;;;24.67;52.08;97488.25;5031183;28;21119;-70
2022/08/03 05:54:57;;;;;;;5.10;4.60;;;;;;;24.82;51.81;97485.09;5031298;28;20278;-70
2022/08/03 05:57:22;;;;;;;9.60;4.50;;;;;;;24.96;51.46;97488.31;5030833;28;20195;-70
2022/08/03 05:59:48;;;;;;;8.63;4.50;;;;;;;25.13;50.96;97483.00;5029987;28;20195;-71
2022/08/03 06:02:13;;;;;;;4.30;3.90;;;;;;;25.29;50.68;97482.22;5030601;28;20706;-70
2022/08/03 06:04:39;;;;;;;5.20;3.80;;;;;;;25.46;50.17;97486.81;5030929;28;20269;-70
2022/08/03 06:07:04;;;;;;;7.90;4.10;;;;;;;25.64;49.48;97484.97;5030178;28;20176;-71
2022/08/03 06:09:29;;;;;;;6.10;4.23;;;;;;;25.81;49.46;97488.50;5028973;28;20184;-70
2022/08/03 06:11:55;;;;;;;7.10;4.40;;;;;;;25.97;49.02;97483.34;5028382;28;20314;-71
2022/08/03 06:14:20;;;;;;;4.20;3.73;;;;;;;26.11;48.33;97479.28;5024077;28;20278;-72
2022/08/03 06:16:46;;;;;;;4.70;3.47;;;;;;;26.28;47.74;97490.00;5021016;28;20184;-70
2022/08/03 06:19:11;;;;;;;4.80;3.47;;;;;;;26.44;47.65;97488.38;5010428;28;20266;-70
2022/08/03 06:21:36;;;;;;;5.77;3.70;;;;;;;26.61;47.35;97498.22;5028216;28;20418;-71
2022/08/03 06:24:02;;;;;;;3.70;3.40;;;;;;;26.69;46.16;97492.44;5021074;28;20208;-70
2022/08/03 06:26:28;;;;;;;8.90;3.50;;;;;;;26.87;46.19;97490.50;5019681;28;20187;-71
2022/08/03 06:28:53;;;;;;;4.47;3.33;;;;;;;26.95;45.49;97487.41;5022698;28;20266;-70
2022/08/03 06:31:24;;;;;;;3.57;3.27;;;;;;;27.06;45.32;97482.91;5022390;28;20271;-71
2022/08/03 06:33:50;;;;;;;3.67;3.37;;;;;;;27.16;44.63;97488.41;5020353;28;20188;-70
2022/08/03 06:36:16;;;;;;;3.37;3.00;;;;;;;27.29;44.71;97487.19;5013847;28;20428;-70
2022/08/03 06:38:41;;;;;;;4.20;3.80;;;;;;;27.48;44.82;97484.16;5023411;28;20434;-69
2022/08/03 06:41:07;;;;;;;3.23;2.93;;;;;;;27.65;44.49;97486.75;5016532;28;20279;-69
2022/08/03 06:43:36;;;;;;;3.63;3.10;;;;;;;27.78;43.99;97488.19;5026892;28;20266;-71
2022/08/03 06:46:02;;;;;;;4.43;2.67;;;;;;;27.96;43.56;97485.13;5027136;28;20204;-71
2022/08/03 06:48:27;;;;;;;5.20;2.87;;;;;;;28.07;42.75;97490.56;5020103;28;20797;-72
2022/08/03 06:50:53;;;;;;;2.80;2.37;;;;;;;28.19;41.92;97483.94;5024059;28;20423;-71
2022/08/03 06:53:19;;;;;;;3.70;2.77;;;;;;;28.33;41.73;97494.25;5028490;28;20208;-72
2022/08/03 06:55:44;;;;;;;5.07;2.80;;;;;;;28.43;41.86;97493.50;5028083;28;20259;-71
2022/08/03 06:58:09;;;;;;;3.30;3.00;;;;;;;28.53;41.58;97493.56;5027811;28;20226;-71
2022/08/03 07:00:35;;;;;;;2.80;2.50;;;;;;;28.64;41.33;97499.81;5028389;28;20187;-71
2022/08/03 07:03:01;;;;;;;3.00;2.80;;;;;;;28.68;40.54;97500.88;5030276;28;20214;-75
2022/08/03 07:05:27;;;;;;;3.03;2.73;;;;;;;28.79;40.91;97491.00;5028624;28;20202;-73
2022/08/03 07:08:00;;;;;;;3.07;2.77;;;;;;;28.90;40.43;97497.25;5030505;28;20184;-73
2022/08/03 07:10:26;;;;;;;2.70;2.50;;;;;;;28.98;39.39;97496.72;5030148;28;20418;-72
2022/08/03 07:12:52;;;;;;;2.53;2.33;;;;;;;29.01;40.02;97501.59;5035032;28;20481;-73
2022/08/03 07:15:17;;;;;;;4.03;2.87;;;;;;;29.05;40.23;97489.19;5031617;28;20196;-73
2022/08/03 07:17:43;;;;;;;2.70;2.50;;;;;;;29.23;40.61;97506.78;5034038;28;20685;-74
2022/08/03 07:20:09;;;;;;;2.63;2.40;;;;;;;29.33;39.57;97497.09;5035340;28;20183;-74
2022/08/03 07:22:34;;;;;;;2.80;2.40;;;;;;;29.41;39.16;97501.97;5033994;28;20265;-73
2022/08/03 07:25:00;;;;;;;2.50;2.30;;;;;;;29.57;39.37;97494.69;5034182;28;20188;-73
2022/08/03 07:27:28;;;;;;;2.50;2.30;;;;;;;29.71;38.86;97493.09;5036216;28;20180;-73
2022/08/03 07:29:54;;;;;;;3.20;2.90;;;;;;;29.84;38.62;97499.84;5034398;28;20191;-73
2022/08/03 07:32:19;;;;;;;10.40;2.50;;;;;;;29.90;38.66;97500.66;5033241;28;20949;-74
2022/08/03 07:34:45;;;;;;;2.60;2.40;;;;;;;30.09;38.64;97498.22;5033800;28;20430;-74
2022/08/03 07:37:10;;;;;;;3.03;2.83;;;;;;;30.26;38.69;97500.63;5015506;28;20199;-73
2022/08/03 07:39:36;;;;;;;9.27;2.57;;;;;;;30.35;37.40;97492.78;5033707;28;20558;-73
2022/08/03 07:42:01;;;;;;;6.47;2.63;;;;;;;30.47;38.00;97495.16;5036929;28;20206;-73
2022/08/03 07:44:27;;;;;;;6.00;2.50;;;;;;;30.64;37.57;97498.38;5033625;28;20761;-73
2022/08/03 07:46:52;;;;;;;6.47;2.70;;;;;;;30.79;37.56;97497.50;5032785;28;20705;-72
2022/08/03 07:49:17;;;;;;;2.77;2.17;;;;;;;30.92;36.67;97498.00;5027829;28;20259;-73
2022/08/03 07:51:43;;;;;;;4.80;2.37;;;;;;;31.05;36.20;97494.69;5033465;28;20203;-73
2022/08/03 07:54:11;;;;;;;5.17;1.97;;;;;;;31.22;36.31;97493.53;5032898;28;20172;-72
2022/08/03 07:56:37;;;;;;;4.70;2.40;;;;;;;31.39;36.32;97491.25;5033266;28;20211;-73
2022/08/03 07:59:02;;;;;;;4.07;1.90;;;;;;;31.46;35.07;97487.44;5033593;28;20496;-73
2022/08/03 08:01:28;;;;;;;3.47;2.07;;;;;;;31.64;35.13;97497.56;5032874;28;20183;-73
2022/08/03 08:03:53;;;;;;;6.80;1.80;;;;;;;31.62;34.24;97494.34;5033462;28;20207;-73
2022/08/03 08:06:22;;;;;;;2.13;1.60;;;;;;;31.64;34.37;97489.44;5033293;28;20180;-74
2022/08/03 08:08:47;;;;;;;4.37;2.23;;;;;;;31.65;34.39;97484.84;5030449;28;20250;-74
2022/08/03 08:11:13;;;;;;;3.50;1.80;;;;;;;31.83;34.24;97480.66;5031592;28;20422;-73
2022/08/03 08:13:39;;;;;;;8.37;2.30;;;;;;;32.01;34.85;97485.34;5037475;28;20222;-73
2022/08/03 08:16:05;;;;;;;4.70;1.90;;;;;;;32.19;34.27;97488.44;5030561;28;20655;-73
2022/08/03 08:18:31;;;;;;;5.57;2.00;;;;;;;32.36;34.54;97484.50;5031669;28;20475;-73
2022/08/03 08:20:57;;;;;;;2.30;2.10;;;;;;;32.50;34.51;97480.03;5013353;28;20427;-74
2022/08/03 08:23:22;;;;;;;1.27;1.13;;;;;;;32.60;32.58;97479.88;5031358;28;20469;-74
2022/08/03 08:25:52;;;;;;;1.63;1.53;;;;;;;32.74;32.51;97487.31;5033635;28;20184;-74
2022/08/03 08:28:18;;;;;;;2.73;1.30;;;;;;;32.86;31.94;97485.03;5034908;28;20192;-74
2022/08/03 08:30:44;;;;;;;4.70;1.40;;;;;;;32.93;31.03;97485.47;5015476;28;20434;-73
2022/08/03 08:33:09;;;;;;;1.80;1.60;;;;;;;32.99;30.41;97490.84;5030508;28;20434;-73
2022/08/03 08:35:35;;;;;;;2.87;1.70;;;;;;;33.14;30.63;97492.53;5027812;28;20558;-74
2022/08/03 08:38:01;;;;;;;3.53;1.57;;;;;;;33.16;29.74;97488.41;5032245;28;20200;-74
2022/08/03 08:40:26;;;;;;;4.73;1.60;;;;;;;33.26;30.63;97483.94;5032365;28;20805;-73
2022/08/03 08:42:52;;;;;;;1.60;1.40;;;;;;;33.20;30.95;97486.72;5036014;28;20215;-73
2022/08/03 08:45:18;;;;;;;1.63;1.53;;;;;;;33.32;30.70;97486.28;5031983;28;20237;-74
2022/08/03 08:47:45;;;;;;;3.20;1.60;;;;;;;33.27;30.71;97491.00;5032374;28;20184;-74
2022/08/03 08:50:11;;;;;;;1.87;1.30;;;;;;;33.50;30.30;97487.41;5025453;28;20191;-73
2022/08/03 08:52:40;;;;;;;1.50;1.40;;;;;;;33.65;29.33;97486.34;5032532;28;20517;-74
2022/08/03 08:55:07;;;;;;;1.30;1.20;;;;;;;33.72;29.07;97488.69;5032166;28;20437;-73
2022/08/03 08:57:36;;;;;;;1.40;1.30;;;;;;;33.51;29.38;97482.75;5032138;28;21008;-74
2022/08/03 09:00:09;;;;;;;1.40;1.30;;;;;;;33.64;29.65;97490.16;5032248;28;20914;-73
2022/08/03 09:02:35;;;;;;;2.00;1.53;;;;;;;33.82;28.91;97493.94;5030643;28;20490;-73
2022/08/03 09:05:00;;;;;;;1.30;1.13;;;;;;;33.92;29.05;97489.44;5032473;28;20918;-74
2022/08/03 09:07:26;;;;;;;4.07;1.73;;;;;;;34.19;29.50;97485.19;5031509;28;20317;-73
2022/08/03 09:09:52;;;;;;;2.77;1.70;;;;;;;34.40;28.49;97481.00;5032498;28;20187;-74
2022/08/03 09:12:18;;;;;;;4.70;1.80;;;;;;;34.58;28.51;97479.28;5027723;28;20294;-74
2022/08/03 09:14:43;;;;;;;2.17;1.50;;;;;;;34.76;28.59;97474.00;5032226;28;20234;-73
2022/08/03 09:17:09;;;;;;;1.20;1.10;;;;;;;34.94;28.19;97472.31;5031614;28;20797;-73
2022/08/03 09:19:35;;;;;;;2.17;1.30;;;;;;;35.09;27.52;97478.53;5032017;28;20194;-74
2022/08/03 09:22:10;;;;;;;1.70;1.60;;;;;;;35.11;27.60;97468.13;5030695;28;20262;-73
2022/08/03 09:24:36;;;;;;;1.70;1.30;;;;;;;35.30;26.80;97471.47;5029956;28;20453;-74
2022/08/03 09:27:04;;;;;;;12.20;1.93;;;;;;;35.43;26.87;97472.59;5030708;28;20441;-74
2022/08/03 09:29:33;;;;;;;8.20;1.63;;;;;;;35.55;26.57;97466.56;5035504;28;20202;-74
2022/08/03 09:32:03;;;;;;;3.73;1.50;;;;;;;35.75;26.13;97478.09;5031651;28;20485;-73
2022/08/03 09:34:29;;;;;;;2.40;1.20;;;;;;;35.67;25.52;97472.25;5031305;28;20899;-74
2022/08/03 09:36:56;;;;;;;2.50;1.50;;;;;;;35.87;26.07;97472.03;5031272;28;20440;-74
2022/08/03 09:39:28;;;;;;;4.30;1.40;;;;;;;35.96;26.29;97476.47;5030739;28;20187;-74
2022/08/03 09:42:13;;;;;;;1.60;1.50;;;;;;;36.12;25.00;97473.34;5028918;28;21042;-74
2022/08/03 09:44:43;;;;;;;1.50;1.40;;;;;;;36.23;24.48;97471.16;5026863;28;20450;-73
2022/08/03 09:47:10;;;;;;;1.93;1.47;;;;;;;36.33;25.08;97470.88;5029713;28;20925;-74
2022/08/03 09:49:42;;;;;;;3.30;1.07;;;;;;;36.37;24.53;97460.91;5026190;28;20421;-73
2022/08/03 09:52:12;;;;;;;2.70;1.53;;;;;;;36.46;24.61;97469.16;5030690;28;20533;-73
2022/08/03 09:54:38;;;;;;;3.00;1.47;;;;;;;36.64;24.92;97466.50;5031315;28;20468;-74
2022/08/03 09:57:04;;;;;;;2.10;1.50;;;;;;;36.75;24.58;97462.34;5012726;28;20422;-72
2022/08/03 09:59:31;;;;;;;2.37;1.10;;;;;;;36.83;24.25;97455.28;5030906;28;20201;-74
2022/08/03 10:01:58;;;;;;;3.20;1.33;;;;;;;36.85;23.13;97459.28;5031221;28;20294;-73
2022/08/03 10:04:24;;;;;;;1.57;1.20;;;;;;;37.01;23.39;97456.13;5030416;28;20483;-74
2022/08/03 10:07:08;;;;;;;3.93;1.40;;;;;;;37.18;23.37;97456.13;5030969;28;21011;-74
2022/08/03 10:09:34;;;;;;;7.83;1.33;;;;;;;37.30;23.68;97451.97;5019723;28;20475;-74
2022/08/03 10:12:13;;;;;;;3.03;1.13;;;;;;;37.40;23.71;97456.28;5033760;28;20464;-73
2022/08/03 10:14:40;;;;;;;1.57;1.33;;;;;;;37.46;23.26;97458.53;5030802;28;20175;-74
2022/08/03 10:17:06;;;;;;;5.00;1.13;;;;;;;37.46;22.99;97455.03;5030132;28;20442;-73
2022/08/03 10:19:32;;;;;;;4.30;1.13;;;;;;;37.44;23.11;97455.34;5030711;28;20469;-73
2022/08/03 10:22:03;;;;;;;1.83;1.20;;;;;;;37.53;23.05;97451.81;5032464;28;20203;-74
2022/08/03 10:24:30;;;;;;;3.40;1.30;;;;;;;37.62;23.01;97453.38;5027760;28;20449;-74
2022/08/03 10:27:02;;;;;;;2.10;1.30;;;;;;;37.56;23.12;97445.66;5029524;28;20418;-74
2022/08/03 10:29:28;;;;;;;2.23;1.20;;;;;;;37.14;22.88;97446.97;5030353;28;20709;-74
2022/08/03 10:31:57;;;;;;;2.27;1.10;;;;;;;37.30;23.24;97444.56;5029804;28;20438;-74
2022/08/03 10:34:28;;;;;;;4.80;1.30;;;;;;;37.47;22.89;97440.25;5030296;28;20521;-74
2022/08/03 10:36:57;;;;;;;2.80;1.33;;;;;;;37.61;23.00;97445.50;5029247;28;20438;-74
2022/08/03 10:39:27;;;;;;;1.50;1.40;;;;;;;37.77;22.95;97443.88;5025620;28;20414;-74
2022/08/03 10:41:55;;;;;;;6.20;1.37;;;;;;;37.89;22.87;97435.00;5023881;28;20445;-74
2022/08/03 10:44:23;;;;;;;1.33;1.23;;;;;;;38.03;22.67;97429.34;5029207;28;20457;-73
2022/08/03 10:46:49;;;;;;;1.63;1.40;;;;;;;38.10;22.48;97432.34;5029471;28;20479;-74
2022/08/03 10:49:16;;;;;;;1.60;1.33;;;;;;;38.01;21.66;97426.13;5024194;28;20479;-74
2022/08/03 10:51:44;;;;;;;4.33;1.57;;;;;;;38.10;22.53;97435.09;5033336;28;20272;-74
2022/08/03 10:57:45;;;;;;;6.50;1.50;;;;;;;38.09;22.10;97428.00;5033484;28;20416;-74
2022/08/03 11:00:12;;;;;;;7.43;1.47;;;;;;;38.32;22.05;97424.22;5034078;28;20429;-74
2022/08/03 11:03:00;;;;;;;2.23;1.20;;;;;;;38.40;22.15;97417.91;5034266;28;20465;-74
2022/08/03 11:05:27;;;;;;;1.30;1.20;;;;;;;38.45;21.92;97422.38;5034518;28;20417;-74
2022/08/03 11:08:28;;;;;;;2.90;1.40;;;;;;;38.54;22.31;97418.47;5030002;28;20479;-74
2022/08/03 11:10:59;;;;;;;3.30;1.47;;;;;;;38.68;22.44;97417.41;5031947;28;20414;-74
2022/08/03 11:13:27;;;;;;;3.80;1.40;;;;;;;38.82;22.11;97409.78;5028122;28;20936;-74
2022/08/03 11:15:54;;;;;;;1.70;1.60;;;;;;;38.86;22.19;97408.00;5034189;28;21085;-75
2022/08/03 11:18:20;;;;;;;2.07;1.40;;;;;;;38.67;22.36;97416.63;5032484;28;20445;-74
2022/08/03 11:20:46;;;;;;;1.37;1.27;;;;;;;38.74;22.60;97407.06;5035144;28;20429;-74
2022/08/03 11:23:12;;;;;;;1.67;1.50;;;;;;;38.80;22.41;97405.75;5033705;28;20560;-73
2022/08/03 11:26:16;;;;;;;3.20;1.43;;;;;;;38.89;21.82;97405.69;5033082;28;20841;-73
2022/08/03 11:28:43;;;;;;;1.50;1.30;;;;;;;39.04;21.87;97394.13;5032237;28;20917;-74
2022/08/03 11:31:20;;;;;;;1.80;1.30;;;;;;;39.02;21.51;97394.47;5034952;28;20448;-74
2022/08/03 11:34:09;;;;;;;1.70;1.60;;;;;;;39.12;22.07;97395.19;5034874;28;20440;-73
2022/08/03 11:37:12;;;;;;;3.00;1.57;;;;;;;39.08;22.07;97388.78;5032608;28;20413;-73
2022/08/03 11:39:45;;;;;;;4.50;1.50;;;;;;;38.98;21.83;97396.28;5029625;28;20414;-73
2022/08/03 11:42:22;;;;;;;2.03;1.40;;;;;;;39.01;21.31;97395.63;5036830;28;20852;-73
2022/08/03 11:44:56;;;;;;;1.83;1.50;;;;;;;38.91;21.58;97385.06;5032599;28;20917;-73
2022/08/03 11:47:28;;;;;;;1.80;1.60;;;;;;;39.06;22.17;97386.38;5033397;28;20433;-75